Time;durP1;ratioP1;P1;durP2;ratioP2;P2;SDS_P1;SDS_P2;PMS_P1;PMS_P2;Temp;Humidity;BMP_temperature;BMP_pressure;BME280_temperature;BME280_humidity;BME280_pressure;Samples;Min_cycle;Max_cycle;Signal;HPM_P1;HPM_P2
2023/07/11 00:00:59;;;;;;;21.85;4.63;;;;;;;16.05;100.00;99983.69;5019829;28;20471;-68
2023/07/11 00:03:26;;;;;;;23.58;3.72;;;;;;;16.00;100.00;99991.09;5015874;28;20140;-68
2023/07/11 00:06:20;;;;;;;12.88;3.53;;;;;;;16.20;100.00;99973.81;5029679;28;20053;-69
2023/07/11 00:08:46;;;;;;;13.30;3.20;;;;;;;16.26;100.00;99959.31;5014515;28;20057;-68
2023/07/11 00:11:15;;;;;;;17.60;3.55;;;;;;;16.16;100.00;99959.13;5017242;28;20279;-68
2023/07/11 00:13:42;;;;;;;18.17;3.75;;;;;;;16.05;100.00;99948.53;5029907;28;20140;-69
2023/07/11 00:16:11;;;;;;;14.45;4.22;;;;;;;16.04;100.00;99941.53;5001244;28;20081;-69
2023/07/11 00:18:38;;;;;;;16.00;3.85;;;;;;;16.06;100.00;99948.41;5026185;28;20049;-69
2023/07/11 00:21:05;;;;;;;15.55;3.20;;;;;;;16.09;100.00;99936.78;5028346;28;20099;-69
2023/07/11 00:23:32;;;;;;;16.02;3.78;;;;;;;15.94;100.00;99931.66;5029758;28;20053;-68
2023/07/11 00:25:59;;;;;;;16.15;3.88;;;;;;;16.03;100.00;99922.22;5028737;28;20045;-68
2023/07/11 00:28:26;;;;;;;12.90;3.67;;;;;;;16.14;100.00;99932.00;5028182;28;20508;-69
2023/07/11 00:30:53;;;;;;;19.05;3.65;;;;;;;15.88;100.00;99933.91;5022360;28;20093;-68
2023/07/11 00:33:20;;;;;;;19.40;4.13;;;;;;;15.93;100.00;99918.56;5012718;28;20676;-69
2023/07/11 00:35:51;;;;;;;13.60;3.88;;;;;;;16.09;100.00;99915.66;5027447;28;20056;-68
2023/07/11 00:38:19;;;;;;;18.13;4.57;;;;;;;15.97;100.00;99909.50;5028114;28;20156;-68
2023/07/11 00:40:48;;;;;;;17.00;3.90;;;;;;;15.96;100.00;99909.59;5025109;28;20080;-68
2023/07/11 00:43:18;;;;;;;21.42;4.20;;;;;;;16.16;100.00;99913.41;5027055;28;20060;-69
2023/07/11 00:46:05;;;;;;;13.30;3.33;;;;;;;16.32;100.00;99908.66;5026106;28;20132;-69
2023/07/11 00:48:36;;;;;;;15.63;3.92;;;;;;;16.11;100.00;99900.53;5022699;28;20060;-69
2023/07/11 00:51:08;;;;;;;19.08;5.07;;;;;;;16.19;100.00;99882.31;5023261;28;20418;-69
2023/07/11 00:53:38;;;;;;;17.58;4.82;;;;;;;16.00;100.00;99867.00;5015751;28;20629;-69
2023/07/11 00:56:08;;;;;;;17.92;4.65;;;;;;;16.18;100.00;99863.94;5024332;28;20140;-69
2023/07/11 00:58:39;;;;;;;21.60;5.00;;;;;;;16.18;100.00;99877.97;5023219;28;20133;-69
2023/07/11 01:01:07;;;;;;;18.33;4.07;;;;;;;16.04;100.00;99871.13;5016382;28;20050;-69
2023/07/11 01:03:34;;;;;;;18.63;4.97;;;;;;;15.83;100.00;99841.88;5015366;28;20076;-69
2023/07/11 01:06:01;;;;;;;15.85;3.55;;;;;;;16.15;100.00;99859.75;5028717;28;20115;-69
2023/07/11 01:08:28;;;;;;;21.27;4.95;;;;;;;16.05;100.00;99850.81;5007265;28;20517;-69
2023/07/11 01:10:54;;;;;;;21.42;5.43;;;;;;;16.05;100.00;99838.47;4997415;28;20046;-69
2023/07/11 01:13:21;;;;;;;17.08;4.80;;;;;;;16.06;100.00;99834.88;5023630;28;20053;-69
2023/07/11 01:15:49;;;;;;;17.52;3.67;;;;;;;16.05;100.00;99832.34;5009941;28;20049;-69
2023/07/11 01:18:16;;;;;;;28.73;5.55;;;;;;;15.76;100.00;99814.25;5010679;28;20487;-69
2023/07/11 01:20:43;;;;;;;16.15;3.50;;;;;;;15.92;100.00;99819.22;5022775;28;20049;-69
2023/07/11 01:23:10;;;;;;;27.40;5.30;;;;;;;15.82;100.00;99811.13;5028718;28;20468;-69
2023/07/11 01:25:38;;;;;;;17.48;4.15;;;;;;;15.93;100.00;99813.81;5028558;28;20038;-69
2023/07/11 01:28:05;;;;;;;22.10;4.85;;;;;;;16.02;100.00;99817.56;5021095;28;20133;-69
2023/07/11 01:30:31;;;;;;;29.55;5.15;;;;;;;15.91;100.00;99815.72;5027900;28;20080;-69
2023/07/11 01:32:58;;;;;;;24.38;5.28;;;;;;;15.86;100.00;99806.47;5022545;28;20046;-69
2023/07/11 01:35:25;;;;;;;17.63;4.88;;;;;;;15.83;100.00;99798.78;5003648;28;20057;-69
2023/07/11 01:37:52;;;;;;;20.92;5.57;;;;;;;15.75;100.00;99780.88;5029186;28;20509;-69
2023/07/11 01:40:18;;;;;;;20.35;4.93;;;;;;;15.86;100.00;99794.09;5022813;28;20050;-69
2023/07/11 01:42:45;;;;;;;16.83;4.53;;;;;;;15.91;100.00;99786.69;5026367;28;20045;-69
2023/07/11 01:45:12;;;;;;;22.27;4.72;;;;;;;16.02;100.00;99777.13;5018645;28;20047;-69
2023/07/11 01:47:39;;;;;;;18.25;4.25;;;;;;;15.84;100.00;99782.00;5029003;28;20139;-69
2023/07/11 01:50:07;;;;;;;18.90;4.47;;;;;;;16.16;100.00;99770.78;5024840;28;20061;-69
2023/07/11 01:52:34;;;;;;;15.73;3.80;;;;;;;15.97;100.00;99761.66;5011187;28;20063;-69
2023/07/11 01:55:01;;;;;;;17.98;4.57;;;;;;;16.18;100.00;99761.78;5011533;28;20048;-69
2023/07/11 01:57:27;;;;;;;18.63;3.67;;;;;;;16.22;100.00;99750.03;5011802;28;20383;-69
2023/07/11 01:59:54;;;;;;;14.85;3.70;;;;;;;16.21;100.00;99737.78;5009491;28;20046;-69
2023/07/11 02:02:21;;;;;;;14.63;3.58;;;;;;;16.33;100.00;99743.94;5019574;28;20144;-69
2023/07/11 02:04:48;;;;;;;20.40;3.70;;;;;;;16.27;100.00;99723.25;5029278;28;20497;-69
2023/07/11 02:07:15;;;;;;;21.13;4.72;;;;;;;16.18;100.00;99727.44;5028512;28;20049;-69
2023/07/11 02:09:42;;;;;;;11.18;3.90;;;;;;;16.32;100.00;99719.34;5029930;28;20046;-69
2023/07/11 02:12:10;;;;;;;15.07;4.35;;;;;;;16.42;100.00;99722.06;5028987;28;20049;-69
2023/07/11 02:14:40;;;;;;;14.38;3.03;;;;;;;16.46;100.00;99723.50;5015993;28;20137;-69
2023/07/11 02:17:08;;;;;;;16.15;3.22;;;;;;;16.42;100.00;99718.59;5029891;28;20229;-68
2023/07/11 02:19:35;;;;;;;14.15;3.97;;;;;;;16.17;100.00;99709.94;5031498;28;20049;-69
2023/07/11 02:22:02;;;;;;;14.95;3.72;;;;;;;16.18;100.00;99708.97;5012639;28;20060;-69
2023/07/11 02:24:28;;;;;;;14.77;3.28;;;;;;;16.25;100.00;99701.41;5033500;28;20049;-69
2023/07/11 02:26:55;;;;;;;12.82;3.25;;;;;;;16.11;100.00;99691.91;5033274;28;20049;-69
2023/07/11 02:29:22;;;;;;;8.90;2.35;;;;;;;16.36;100.00;99685.59;5030316;28;20107;-69
2023/07/11 02:31:49;;;;;;;18.33;3.75;;;;;;;16.26;100.00;99679.34;5015313;28;20050;-69
2023/07/11 02:34:16;;;;;;;11.25;2.92;;;;;;;16.30;100.00;99681.59;5032652;28;20064;-69
2023/07/11 02:36:43;;;;;;;11.75;2.45;;;;;;;16.31;100.00;99666.63;5032548;28;20141;-69
2023/07/11 02:39:09;;;;;;;10.43;2.40;;;;;;;16.41;100.00;99664.06;5032589;28;20493;-69
2023/07/11 02:41:36;;;;;;;10.55;2.45;;;;;;;16.52;100.00;99659.63;5023846;28;20049;-69
2023/07/11 02:44:03;;;;;;;10.82;2.95;;;;;;;16.35;100.00;99652.19;5032690;28;20046;-69
2023/07/11 02:46:30;;;;;;;14.73;3.38;;;;;;;16.19;100.00;99655.19;5033143;28;20116;-69
2023/07/11 02:48:57;;;;;;;11.35;2.92;;;;;;;16.12;100.00;99654.00;5032564;28;20111;-68
2023/07/11 02:51:24;;;;;;;12.20;2.50;;;;;;;16.09;100.00;99648.97;5031235;28;20058;-69
2023/07/11 02:53:51;;;;;;;12.23;2.55;;;;;;;16.09;100.00;99636.59;5032303;28;20060;-69
2023/07/11 02:56:19;;;;;;;10.82;2.60;;;;;;;16.03;100.00;99630.97;5032369;28;20060;-69
2023/07/11 02:58:47;;;;;;;13.68;2.92;;;;;;;15.80;100.00;99630.13;5032388;28;20049;-69
2023/07/11 03:01:14;;;;;;;11.27;2.80;;;;;;;15.77;100.00;99625.88;5019550;28;20097;-69
2023/07/11 03:03:41;;;;;;;9.38;2.40;;;;;;;15.93;100.00;99609.72;5031677;28;20061;-69
2023/07/11 03:06:08;;;;;;;12.40;2.53;;;;;;;16.21;100.00;99618.94;5018736;28;20058;-69
2023/07/11 03:08:35;;;;;;;7.07;2.05;;;;;;;16.32;100.00;99607.53;5023815;28;20044;-69
2023/07/11 03:11:01;;;;;;;8.73;2.15;;;;;;;16.46;100.00;99599.34;5029069;28;20141;-69
2023/07/11 03:13:29;;;;;;;8.73;2.40;;;;;;;16.44;100.00;99589.88;5036132;28;20056;-69
2023/07/11 03:16:00;;;;;;;7.78;2.10;;;;;;;16.40;100.00;99577.88;5030553;28;20042;-68
2023/07/11 03:18:27;;;;;;;7.00;1.80;;;;;;;16.58;100.00;99575.56;5037598;28;20071;-69
2023/07/11 03:20:58;;;;;;;6.68;1.65;;;;;;;16.65;100.00;99574.91;5038806;28;20055;-68
2023/07/11 03:23:24;;;;;;;6.70;1.83;;;;;;;16.48;100.00;99562.22;5051278;28;20045;-69
2023/07/11 03:25:53;;;;;;;10.18;2.03;;;;;;;16.38;100.00;99577.13;5033867;28;20057;-68
2023/07/11 03:28:20;;;;;;;7.88;1.70;;;;;;;16.42;100.00;99570.66;5036783;28;20046;-69
2023/07/11 03:30:47;;;;;;;5.93;1.60;;;;;;;16.55;100.00;99570.50;5032954;28;20064;-68
2023/07/11 03:33:15;;;;;;;6.72;1.50;;;;;;;16.61;100.00;99570.00;5039854;28;20056;-68
2023/07/11 03:35:47;;;;;;;9.50;2.05;;;;;;;16.40;100.00;99556.75;5041798;28;20073;-69
2023/07/11 03:38:14;;;;;;;7.15;1.52;;;;;;;16.24;100.00;99568.53;5031319;28;20088;-68
2023/07/11 03:40:40;;;;;;;9.18;2.13;;;;;;;16.14;100.00;99563.13;5035627;28;20350;-69
2023/07/11 03:43:07;;;;;;;7.65;1.75;;;;;;;16.20;100.00;99559.19;5006206;28;20083;-69
2023/07/11 03:45:34;;;;;;;7.82;1.70;;;;;;;16.19;100.00;99551.38;5051861;28;20512;-69
2023/07/11 03:48:01;;;;;;;6.72;1.80;;;;;;;16.24;100.00;99559.78;5033643;28;20049;-69
2023/07/11 03:50:27;;;;;;;6.68;1.63;;;;;;;16.44;100.00;99537.88;5033855;28;20050;-69
2023/07/11 03:52:54;;;;;;;7.65;1.83;;;;;;;16.49;100.00;99534.88;5030613;28;20048;-69
2023/07/11 03:55:21;;;;;;;7.10;1.65;;;;;;;16.60;100.00;99542.75;5030835;28;20077;-69
2023/07/11 03:57:47;;;;;;;9.02;1.70;;;;;;;16.57;100.00;99542.97;5013333;28;20129;-69
2023/07/11 04:00:14;;;;;;;4.65;1.40;;;;;;;16.69;100.00;99539.34;5026328;28;20046;-69
2023/07/11 04:02:41;;;;;;;7.95;1.95;;;;;;;16.64;100.00;99540.69;5026647;28;20053;-69
2023/07/11 04:05:08;;;;;;;6.43;1.80;;;;;;;16.42;100.00;99539.78;5030669;28;20516;-69
2023/07/11 04:07:35;;;;;;;8.27;2.17;;;;;;;16.43;100.00;99544.13;5030755;28;20080;-68
2023/07/11 04:10:02;;;;;;;8.77;2.22;;;;;;;16.43;100.00;99545.91;5027335;28;20052;-69
2023/07/11 04:12:29;;;;;;;6.07;1.63;;;;;;;16.30;100.00;99538.97;5023817;28;20045;-68
2023/07/11 04:14:55;;;;;;;6.43;1.67;;;;;;;16.16;100.00;99527.84;5030440;28;20474;-69
2023/07/11 04:17:22;;;;;;;6.72;1.90;;;;;;;16.47;100.00;99540.25;5030332;28;20049;-69
2023/07/11 04:19:50;;;;;;;8.98;1.88;;;;;;;16.47;100.00;99534.16;5028696;28;20047;-68
2023/07/11 04:22:17;;;;;;;4.75;1.50;;;;;;;16.56;100.00;99535.22;5042637;28;20087;-68
2023/07/11 04:24:44;;;;;;;5.10;1.50;;;;;;;16.47;100.00;99531.50;5032575;28;20049;-68
2023/07/11 04:27:10;;;;;;;2.92;1.23;;;;;;;16.39;100.00;99518.06;5033579;28;20041;-69
2023/07/11 04:29:38;;;;;;;4.10;1.30;;;;;;;16.43;100.00;99514.22;5051148;28;20057;-69
2023/07/11 04:32:06;;;;;;;3.90;1.55;;;;;;;16.40;100.00;99525.88;5029902;28;20061;-69
2023/07/11 04:34:33;;;;;;;3.33;1.10;;;;;;;16.44;100.00;99516.72;5029723;28;20132;-69
2023/07/11 04:36:59;;;;;;;4.00;1.13;;;;;;;16.28;100.00;99508.38;5038353;28;20360;-68
2023/07/11 04:39:26;;;;;;;3.22;1.13;;;;;;;16.25;100.00;99520.00;5023082;28;20045;-69
2023/07/11 04:41:53;;;;;;;3.78;1.08;;;;;;;16.31;100.00;99510.78;5031243;28;20049;-69
2023/07/11 04:44:20;;;;;;;2.97;1.10;;;;;;;16.12;100.00;99501.69;5049234;28;20053;-69
2023/07/11 04:46:46;;;;;;;4.05;1.23;;;;;;;15.92;100.00;99502.47;5050034;28;20071;-69
2023/07/11 04:49:13;;;;;;;4.20;1.17;;;;;;;16.05;100.00;99504.94;5046120;28;20139;-69
2023/07/11 04:51:40;;;;;;;2.45;1.02;;;;;;;16.02;100.00;99503.38;5035148;28;20224;-69
2023/07/11 04:54:07;;;;;;;3.38;1.38;;;;;;;16.18;100.00;99520.66;5048769;28;20482;-68
2023/07/11 04:56:38;;;;;;;3.30;1.15;;;;;;;16.09;100.00;99498.47;5037651;28;20128;-68
2023/07/11 04:59:04;;;;;;;6.88;1.65;;;;;;;16.22;100.00;99501.81;5036209;28;20049;-69
2023/07/11 05:01:31;;;;;;;2.95;1.23;;;;;;;16.25;100.00;99498.06;5028634;28;20049;-69
2023/07/11 05:03:58;;;;;;;3.83;1.30;;;;;;;16.21;100.00;99494.81;5041742;28;20053;-69
2023/07/11 05:06:26;;;;;;;9.32;1.90;;;;;;;16.25;100.00;99492.78;5044363;28;20135;-68
2023/07/11 05:08:53;;;;;;;7.70;1.70;;;;;;;16.21;100.00;99488.72;5022539;28;20139;-69
2023/07/11 05:11:21;;;;;;;4.78;1.70;;;;;;;16.37;100.00;99496.22;5022730;28;20057;-69
2023/07/11 05:13:49;;;;;;;4.80;1.55;;;;;;;16.03;100.00;99485.75;5039298;28;20056;-68
2023/07/11 05:16:18;;;;;;;6.57;1.98;;;;;;;16.01;100.00;99490.34;5036178;28;20049;-68
2023/07/11 05:18:47;;;;;;;10.40;2.55;;;;;;;16.14;100.00;99476.00;5042379;28;20060;-69
2023/07/11 05:21:16;;;;;;;8.95;3.10;;;;;;;16.16;100.00;99482.97;5037040;28;20083;-68
2023/07/11 05:23:43;;;;;;;8.52;2.72;;;;;;;16.22;100.00;99477.16;5043927;28;20076;-69
2023/07/11 05:26:10;;;;;;;8.13;2.92;;;;;;;16.29;100.00;99478.38;5038300;28;20049;-69
2023/07/11 05:28:37;;;;;;;12.80;3.22;;;;;;;15.97;100.00;99447.50;5048005;28;20087;-69
2023/07/11 05:31:05;;;;;;;11.82;3.15;;;;;;;15.81;100.00;99447.03;5034839;28;20079;-68
2023/07/11 05:33:33;;;;;;;6.07;2.50;;;;;;;15.72;100.00;99445.94;5031210;28;20044;-69
2023/07/11 05:36:25;;;;;;;8.25;2.22;;;;;;;15.72;100.00;99454.72;5043084;28;20051;-68
2023/07/11 05:38:52;;;;;;;6.95;2.00;;;;;;;15.55;100.00;99452.56;5025850;28;20103;-69
2023/07/11 05:41:19;;;;;;;5.32;1.48;;;;;;;15.72;100.00;99445.94;5018162;28;20063;-68
2023/07/11 05:43:46;;;;;;;7.47;1.63;;;;;;;15.52;100.00;99424.59;5030211;28;20048;-69
2023/07/11 05:46:13;;;;;;;6.72;2.08;;;;;;;15.50;100.00;99439.72;5029951;28;20049;-69
2023/07/11 05:48:40;;;;;;;7.03;1.95;;;;;;;15.58;100.00;99439.09;5030563;28;20049;-68
2023/07/11 05:51:10;;;;;;;6.70;1.50;;;;;;;15.64;100.00;99435.16;5035939;28;20269;-69
2023/07/11 05:53:37;;;;;;;6.05;1.60;;;;;;;15.54;100.00;99422.69;5041080;28;20049;-68
2023/07/11 05:56:04;;;;;;;5.85;1.70;;;;;;;15.63;100.00;99423.75;5036538;28;20475;-69
2023/07/11 05:58:32;;;;;;;10.30;2.17;;;;;;;15.66;100.00;99430.59;5042768;28;20044;-69
2023/07/11 06:00:59;;;;;;;5.88;1.60;;;;;;;15.68;100.00;99413.69;5034244;28;20058;-69
2023/07/11 06:03:29;;;;;;;6.35;1.50;;;;;;;15.73;100.00;99411.50;5052909;28;20052;-69
2023/07/11 06:06:01;;;;;;;3.90;1.30;;;;;;;15.48;100.00;99407.34;5052630;28;20048;-68
2023/07/11 06:08:29;;;;;;;5.65;1.48;;;;;;;15.54;100.00;99409.50;5015836;28;20057;-69
2023/07/11 06:10:58;;;;;;;9.48;1.65;;;;;;;15.37;100.00;99383.63;5032876;28;20045;-69
2023/07/11 06:13:26;;;;;;;11.02;2.30;;;;;;;15.28;100.00;99400.16;5047922;28;20046;-68
2023/07/11 06:16:03;;;;;;;8.93;2.08;;;;;;;15.47;100.00;99399.56;5045030;28;20405;-69
2023/07/11 06:18:34;;;;;;;5.30;1.50;;;;;;;15.58;100.00;99410.09;5037741;28;20582;-69
2023/07/11 06:21:01;;;;;;;5.63;1.48;;;;;;;15.50;100.00;99399.31;5040358;28;20083;-69
2023/07/11 06:23:28;;;;;;;9.05;2.13;;;;;;;15.52;100.00;99400.03;5052396;28;20135;-68
2023/07/11 06:25:55;;;;;;;10.00;1.92;;;;;;;15.42;100.00;99368.25;5053177;28;20047;-68
2023/07/11 06:28:22;;;;;;;6.28;1.80;;;;;;;15.81;100.00;99395.13;5053797;28;20048;-68
2023/07/11 06:30:48;;;;;;;7.32;1.90;;;;;;;15.69;100.00;99386.34;5043404;28;20482;-69
2023/07/11 06:33:17;;;;;;;8.40;2.03;;;;;;;15.75;100.00;99387.66;5033265;28;20053;-68
2023/07/11 06:35:51;;;;;;;9.32;1.60;;;;;;;15.77;100.00;99383.09;5036120;28;20483;-69
2023/07/11 06:38:18;;;;;;;12.02;2.10;;;;;;;15.68;100.00;99387.28;5042630;28;20094;-69
2023/07/11 06:40:55;;;;;;;9.48;2.08;;;;;;;15.83;100.00;99379.13;5037914;28;20107;-69
2023/07/11 06:43:24;;;;;;;7.90;2.00;;;;;;;15.67;100.00;99385.63;5042629;28;20425;-69
2023/07/11 06:45:54;;;;;;;5.03;1.40;;;;;;;15.66;100.00;99385.75;5049046;28;20643;-69
2023/07/11 06:48:22;;;;;;;11.77;2.35;;;;;;;16.01;100.00;99379.44;5041952;28;20065;-69
2023/07/11 06:50:51;;;;;;;6.22;1.70;;;;;;;16.02;100.00;99373.19;5040564;28;20060;-68
2023/07/11 06:53:19;;;;;;;8.20;2.05;;;;;;;16.18;100.00;99376.25;5052051;28;20053;-68
2023/07/11 06:55:48;;;;;;;4.47;1.50;;;;;;;16.08;100.00;99378.81;5038673;28;20053;-68
2023/07/11 06:58:15;;;;;;;10.98;1.67;;;;;;;15.83;100.00;99371.22;5028120;28;20547;-69
2023/07/11 07:00:43;;;;;;;8.70;1.52;;;;;;;15.75;100.00;99356.84;5031730;28;20144;-69
2023/07/11 07:03:13;;;;;;;7.03;1.48;;;;;;;16.02;100.00;99374.03;5033736;28;20160;-69
2023/07/11 07:05:55;;;;;;;4.55;1.33;;;;;;;16.22;100.00;99369.75;5040105;28;20045;-68
2023/07/11 07:08:23;;;;;;;5.57;1.17;;;;;;;16.22;100.00;99368.91;5035043;28;20048;-69
2023/07/11 07:10:50;;;;;;;2.10;0.90;;;;;;;16.37;100.00;99372.91;5039736;28;20132;-68
2023/07/11 07:13:19;;;;;;;4.28;1.00;;;;;;;16.42;100.00;99372.53;5036967;28;20048;-68
2023/07/11 07:15:48;;;;;;;2.80;1.13;;;;;;;16.49;100.00;99371.88;5052007;28;20139;-69
2023/07/11 07:18:15;;;;;;;3.47;1.10;;;;;;;16.72;100.00;99368.28;5037931;28;20686;-68
2023/07/11 07:20:46;;;;;;;2.92;0.90;;;;;;;16.87;100.00;99367.84;5033213;28;20053;-69
2023/07/11 07:23:25;;;;;;;1.70;0.93;;;;;;;17.12;100.00;99354.28;5029389;28;20110;-69
2023/07/11 07:25:58;;;;;;;3.13;1.15;;;;;;;17.52;100.00;99362.22;5046089;28;20045;-68
2023/07/11 07:28:27;;;;;;;3.08;1.02;;;;;;;17.77;100.00;99367.97;5045382;28;20052;-69
2023/07/11 07:30:55;;;;;;;2.83;1.13;;;;;;;17.89;100.00;99366.91;5030705;28;20050;-69
2023/07/11 07:33:24;;;;;;;3.35;1.00;;;;;;;18.14;100.00;99365.53;5044233;28;20052;-69
2023/07/11 07:35:56;;;;;;;1.05;0.75;;;;;;;18.02;100.00;99370.16;5051756;28;20116;-69
2023/07/11 07:38:27;;;;;;;1.00;0.70;;;;;;;18.00;100.00;99365.94;5046077;28;20406;-69
2023/07/11 07:40:57;;;;;;;2.85;0.82;;;;;;;17.94;100.00;99370.00;5039851;28;20428;-69
2023/07/11 07:43:25;;;;;;;0.60;0.60;;;;;;;18.05;100.00;99371.66;5051810;28;20053;-69
2023/07/11 07:45:54;;;;;;;1.38;0.80;;;;;;;18.08;100.00;99363.44;5048744;28;20048;-69
2023/07/11 07:48:22;;;;;;;2.47;0.73;;;;;;;18.12;100.00;99364.84;5041358;28;20049;-69
2023/07/11 07:50:49;;;;;;;1.10;0.70;;;;;;;18.23;100.00;99368.31;5025020;28;20060;-69
2023/07/11 07:53:17;;;;;;;0.50;0.50;;;;;;;18.37;100.00;99384.63;5051569;28;20060;-69
2023/07/11 07:55:44;;;;;;;0.95;0.70;;;;;;;18.35;100.00;99377.78;5051881;28;20478;-69
2023/07/11 07:58:13;;;;;;;0.80;0.60;;;;;;;17.98;100.00;99384.63;5033985;28;20128;-70
2023/07/11 08:00:46;;;;;;;1.25;0.60;;;;;;;17.98;100.00;99376.66;5042002;28;20080;-70
2023/07/11 08:03:14;;;;;;;4.15;1.00;;;;;;;18.12;100.00;99395.78;5031371;28;20148;-69
2023/07/11 08:05:41;;;;;;;1.55;0.70;;;;;;;18.20;100.00;99390.63;5043306;28;20144;-70
2023/07/11 08:08:08;;;;;;;1.52;0.70;;;;;;;18.23;100.00;99386.88;5039491;28;20044;-70
2023/07/11 08:10:35;;;;;;;1.85;0.70;;;;;;;18.47;100.00;99389.91;5039730;28;20053;-69
2023/07/11 08:13:01;;;;;;;1.30;0.73;;;;;;;18.79;100.00;99388.75;5047596;28;20131;-70
2023/07/11 08:15:28;;;;;;;1.85;0.70;;;;;;;19.42;100.00;99379.31;5046792;28;20055;-70
2023/07/11 08:17:55;;;;;;;1.67;0.77;;;;;;;19.78;100.00;99387.38;5023364;28;20052;-70
2023/07/11 08:20:22;;;;;;;1.23;0.70;;;;;;;19.75;100.00;99374.41;5021643;28;20080;-70
2023/07/11 08:22:50;;;;;;;0.95;0.60;;;;;;;20.05;100.00;99382.00;5014590;28;20041;-69
2023/07/11 08:25:16;;;;;;;4.05;1.00;;;;;;;20.35;100.00;99377.28;5012280;28;20491;-69
2023/07/11 08:27:43;;;;;;;3.85;0.90;;;;;;;20.43;100.00;99385.34;5028488;28;20073;-69
2023/07/11 08:30:10;;;;;;;2.00;0.80;;;;;;;19.82;100.00;99386.94;5019109;28;20050;-69
2023/07/11 08:32:38;;;;;;;3.05;0.80;;;;;;;19.94;100.00;99386.72;5010229;28;20077;-69
2023/07/11 08:35:09;;;;;;;1.58;0.80;;;;;;;19.97;100.00;99373.97;5023049;28;20115;-69
2023/07/11 08:37:35;;;;;;;1.15;0.70;;;;;;;19.87;100.00;99371.38;5031184;28;20057;-69
2023/07/11 08:40:03;;;;;;;1.48;0.70;;;;;;;20.16;100.00;99380.94;5019450;28;20144;-69
2023/07/11 08:42:40;;;;;;;1.83;0.80;;;;;;;20.09;100.00;99375.41;5027562;28;20289;-69
2023/07/11 08:45:33;;;;;;;1.83;0.80;;;;;;;19.97;100.00;99375.78;5012474;28;20045;-69
2023/07/11 08:48:24;;;;;;;1.83;0.80;;;;;;;19.78;100.00;99376.75;5027734;28;20049;-69
2023/07/11 08:50:59;;;;;;;2.42;0.88;;;;;;;19.71;100.00;99379.16;5020002;28;20054;-69
2023/07/11 08:53:32;;;;;;;1.92;0.80;;;;;;;19.30;100.00;99379.53;5011679;28;20053;-69
2023/07/11 08:56:44;;;;;;;1.90;0.90;;;;;;;19.09;100.00;99373.63;5022669;28;20080;-69
2023/07/11 08:59:25;;;;;;;3.30;0.98;;;;;;;18.69;100.00;99366.72;4966906;28;20058;-69
2023/07/11 09:02:10;;;;;;;3.75;0.88;;;;;;;19.13;100.00;99367.84;4966814;28;20054;-69
2023/07/11 09:04:47;;;;;;;3.63;1.10;;;;;;;19.64;100.00;99373.59;4993951;28;20041;-70
2023/07/11 09:07:40;;;;;;;1.38;0.80;;;;;;;20.22;100.00;99371.53;5028578;28;20057;-69
2023/07/11 09:10:25;;;;;;;3.13;1.20;;;;;;;20.23;100.00;99367.88;5019757;28;20132;-69
2023/07/11 09:13:13;;;;;;;3.67;0.80;;;;;;;20.09;100.00;99367.44;5022476;28;20128;-69
2023/07/11 09:15:47;;;;;;;3.88;1.13;;;;;;;20.17;100.00;99369.34;5025209;28;20046;-69
2023/07/11 09:18:32;;;;;;;2.40;0.93;;;;;;;20.32;100.00;99368.78;5024493;28;20145;-69
2023/07/11 09:21:08;;;;;;;3.72;1.20;;;;;;;20.29;100.00;99367.25;5019815;28;20063;-69
2023/07/11 09:23:52;;;;;;;4.97;1.13;;;;;;;20.06;100.00;99369.56;5015084;28;20169;-69
2023/07/11 09:26:28;;;;;;;4.22;1.13;;;;;;;20.07;100.00;99350.81;5029356;28;20057;-69
2023/07/11 09:29:06;;;;;;;2.92;1.20;;;;;;;19.82;100.00;99352.41;5028375;28;20107;-69
2023/07/11 09:31:56;;;;;;;4.53;1.02;;;;;;;19.79;100.00;99358.00;5027093;28;20052;-69
2023/07/11 09:34:32;;;;;;;4.00;1.10;;;;;;;19.92;100.00;99369.13;4999633;28;20148;-69
2023/07/11 09:37:08;;;;;;;3.03;1.00;;;;;;;19.99;100.00;99357.88;5032428;28;20541;-70
2023/07/11 09:40:08;;;;;;;4.47;1.25;;;;;;;20.07;100.00;99356.13;5019792;28;20056;-69
2023/07/11 09:42:47;;;;;;;3.20;1.15;;;;;;;20.38;100.00;99361.06;5029113;28;20054;-69
2023/07/11 09:45:16;;;;;;;2.55;0.98;;;;;;;20.49;100.00;99349.31;5023894;28;20045;-70
2023/07/11 09:47:52;;;;;;;2.00;0.90;;;;;;;20.76;100.00;99343.03;5030528;28;20054;-70
2023/07/11 09:50:57;;;;;;;4.10;0.88;;;;;;;20.94;100.00;99350.13;5027984;28;20057;-69
2023/07/11 09:53:30;;;;;;;2.13;0.93;;;;;;;20.49;100.00;99334.19;4922882;29;20056;-69
2023/07/11 09:56:00;;;;;;;2.05;0.85;;;;;;;20.49;100.00;99342.19;4922488;29;20094;-69
2023/07/11 09:58:38;;;;;;;1.27;0.70;;;;;;;20.59;100.00;99349.22;4987610;28;20049;-69
2023/07/11 10:01:14;;;;;;;1.38;0.60;;;;;;;20.96;100.00;99345.47;5009483;28;20527;-68
2023/07/11 10:03:47;;;;;;;0.60;0.60;;;;;;;21.21;100.00;99333.97;5031302;28;20056;-68
2023/07/11 10:06:41;;;;;;;0.75;0.60;;;;;;;21.49;100.00;99343.56;5010865;28;20120;-69
2023/07/11 10:09:17;;;;;;;0.50;0.50;;;;;;;21.97;100.00;99333.97;5018954;28;20510;-68
2023/07/11 10:11:50;;;;;;;;;;;;;;;21.56;100.00;99337.41;5021308;28;20053;-68
2023/07/11 10:14:19;;;;;;;1.30;0.60;;;;;;;20.99;100.00;99327.38;5035224;28;20012;-68
2023/07/11 10:16:47;;;;;;;1.40;0.50;;;;;;;22.02;100.00;99325.50;5024509;28;20049;-68
2023/07/11 10:19:18;;;;;;;0.90;0.50;;;;;;;22.23;100.00;99330.34;5021914;28;20380;-68
2023/07/11 10:21:48;;;;;;;0.50;0.50;;;;;;;21.97;100.00;99336.66;5002157;28;20072;-69
2023/07/11 10:24:18;;;;;;;0.80;0.60;;;;;;;21.52;100.00;99341.41;5033596;28;20053;-69
2023/07/11 10:26:48;;;;;;;2.88;0.98;;;;;;;21.60;100.00;99324.59;5019130;28;20073;-69
2023/07/11 10:29:19;;;;;;;1.98;0.80;;;;;;;21.30;100.00;99321.53;5016609;28;20051;-69
2023/07/11 10:32:09;;;;;;;4.75;1.20;;;;;;;21.32;100.00;99339.97;5022877;28;20058;-69
2023/07/11 10:34:46;;;;;;;3.15;0.90;;;;;;;21.44;100.00;99341.34;5013941;28;20141;-69
2023/07/11 10:37:26;;;;;;;2.47;0.90;;;;;;;21.45;100.00;99343.00;5030047;28;20045;-69
2023/07/11 10:40:00;;;;;;;2.63;0.85;;;;;;;21.03;100.00;99333.19;5019398;28;20283;-69
2023/07/11 10:42:42;;;;;;;1.85;0.70;;;;;;;21.20;100.00;99337.59;5025644;28;20049;-69
2023/07/11 10:45:20;;;;;;;1.63;0.68;;;;;;;21.30;100.00;99329.50;5024187;28;20051;-69
2023/07/11 10:47:59;;;;;;;1.92;0.80;;;;;;;21.65;100.00;99342.75;5020818;28;20149;-69
2023/07/11 10:50:34;;;;;;;1.55;0.60;;;;;;;21.81;100.00;99334.78;5017788;28;20123;-69
2023/07/11 10:53:12;;;;;;;0.65;0.52;;;;;;;21.75;100.00;99338.13;5027967;28;20518;-69
2023/07/11 10:55:46;;;;;;;0.82;0.50;;;;;;;22.27;100.00;99339.69;5027141;28;20443;-69
2023/07/11 10:58:22;;;;;;;0.65;0.50;;;;;;;23.16;100.00;99331.69;5019195;28;20049;-69
2023/07/11 11:01:08;;;;;;;0.50;0.50;;;;;;;23.20;100.00;99330.34;5002670;28;20124;-69
2023/07/11 11:03:45;;;;;;;0.80;0.50;;;;;;;22.64;100.00;99327.66;5015331;28;20057;-69
2023/07/11 11:06:43;;;;;;;0.45;0.45;;;;;;;22.45;100.00;99321.69;5026153;28;20388;-69
2023/07/11 11:09:29;;;;;;;1.00;0.52;;;;;;;22.67;100.00;99333.47;5016478;28;20042;-69
2023/07/11 11:12:04;;;;;;;1.30;0.57;;;;;;;22.88;100.00;99322.25;5016347;28;20132;-69
2023/07/11 11:14:46;;;;;;;1.98;0.80;;;;;;;23.20;100.00;99328.50;5015433;28;20058;-70
2023/07/11 11:17:19;;;;;;;2.40;0.88;;;;;;;23.18;100.00;99332.34;5027491;28;20403;-70
2023/07/11 11:19:55;;;;;;;0.85;0.55;;;;;;;22.93;100.00;99329.75;5020544;28;20420;-69
2023/07/11 11:22:47;;;;;;;0.50;0.50;;;;;;;23.10;100.00;99325.19;5029564;28;20136;-70
2023/07/11 11:25:22;;;;;;;0.50;0.50;;;;;;;22.94;100.00;99326.88;5023453;28;20511;-69
2023/07/11 11:28:11;;;;;;;2.85;0.60;;;;;;;22.67;100.00;99329.97;5035465;28;20502;-70
2023/07/11 11:30:57;;;;;;;0.40;0.40;;;;;;;22.16;100.00;99331.00;5024161;28;20128;-70
2023/07/11 11:34:07;;;;;;;0.40;0.40;;;;;;;22.44;100.00;99329.84;5034234;28;20409;-70
2023/07/11 11:36:50;;;;;;;2.15;0.63;;;;;;;22.21;100.00;99327.84;5024470;28;20152;-70
2023/07/11 11:39:41;;;;;;;2.55;0.60;;;;;;;22.33;100.00;99331.03;5028903;28;20053;-70